This is the latest recevied weather packets stored in our database for station/object es2jt. If no packets are shown the sender has not sent any weather packets the latest 10 day(s).
| Time | Temp. | Humidity | Pressure | Rain* | Wind** | Luminosity | Snow |
|---|---|---|---|---|---|---|---|
| 1778178446 | 6.67° C | 49% | 1011.8 hPa | 0 mm | - | - | - |
| 1778175746 | 9.44° C | 44% | 1011.4 hPa | 0 mm | - | - | - |
| 1778175206 | 10.56° C | 38% | 1011.2 hPa | 0 mm | - | - | - |
| 1778171426 | 12.22° C | 31% | 1010.7 hPa | 0 mm | - | - | - |
| 1778170347 | 13.89° C | 32% | 1010.5 hPa | 0 mm | - | - | - |
| 1778168727 | 12.78° C | 35% | 1010.5 hPa | 0 mm | - | - | - |
| 1778166566 | 12.78° C | 31% | 1010.3 hPa | 0 mm | - | - | - |
| 1778166026 | 12.78° C | 29% | 1010.5 hPa | 0 mm | - | - | - |
| 1778162247 | 16.67° C | 31% | 1010.5 hPa | 0 mm | - | - | - |
| 1778158599 | 16.67° C | 39% | 1010.5 hPa | 0 mm | - | - | - |
| 1778157386 | 16.67° C | 38% | 1010.5 hPa | 0 mm | - | - | - |
| 1778154686 | 16.11° C | 36% | 1010.2 hPa | 0 mm | - | - | - |
| 1778153066 | 16.11° C | 36% | 1010.3 hPa | 0 mm | - | - | - |
| 1778151986 | 15.56° C | 41% | 1010.3 hPa | 0 mm | - | - | - |
| 1778150365 | 13.89° C | 50% | 1010.1 hPa | 0 mm | - | - | - |
| 1778148746 | 15.56° C | 41% | 1009.8 hPa | 0 mm | - | - | - |
| 1778145506 | 14.44° C | 41% | 1009.9 hPa | 0 mm | - | - | - |
| 1778134706 | 12.22° C | 51% | 1009.7 hPa | 0 mm | - | - | - |
| 1778134166 | 11.67° C | 53% | 1009.8 hPa | 0 mm | - | - | - |
| 1778133086 | 12.22° C | 51% | 1009.6 hPa | 0 mm | - | - | - |
| 1778132546 | 12.22° C | 52% | 1009.5 hPa | 0 mm | - | - | - |
| 1778127686 | 3.89° C | 94% | 1009.5 hPa | 0 mm | - | - | - |
| 1778124986 | 2.22° C | 91% | 1009.4 hPa | 0 mm | - | - | - |
| 1778121748 | 0.56° C | 91% | 1009.2 hPa | 0 mm | - | - | - |
| 1778118638 | 1.11° C | 89% | 1009.3 hPa | 0 mm | - | - | - |
* Rain latest hour (hover to see other rain measurements)
** Current wind speed in m/s (hover to see current wind gust speed)